Time;durP1;ratioP1;P1;durP2;ratioP2;P2;SDS_P1;SDS_P2;PMS_P1;PMS_P2;Temp;Humidity;BMP_temperature;BMP_pressure;BME280_temperature;BME280_humidity;BME280_pressure;Samples;Min_cycle;Max_cycle;Signal;HPM_P1;HPM_P2
2023/05/12 00:00:13;;;;;;;0.60;0.50;;;11.10;99.90;;;;;;6096659;23;20376;-77
2023/05/12 00:02:41;;;;;;;0.50;0.30;;;11.10;99.90;;;;;;6097422;23;20802;-77
2023/05/12 00:05:08;;;;;;;0.80;0.30;;;11.10;99.90;;;;;;6096523;23;20394;-76
2023/05/12 00:07:35;;;;;;;0.30;0.30;;;11.10;99.90;;;;;;6097802;23;20368;-76
2023/05/12 00:10:02;;;;;;;0.40;0.25;;;11.10;99.90;;;;;;6096481;23;20379;-77
2023/05/12 00:12:29;;;;;;;0.50;0.38;;;11.10;99.90;;;;;;6097397;23;20375;-77
2023/05/12 00:14:56;;;;;;;0.40;0.30;;;11.00;99.90;;;;;;6097533;23;20480;-76
2023/05/12 00:17:23;;;;;;;0.30;0.30;;;11.00;99.90;;;;;;6097395;23;20375;-82
2023/05/12 00:19:50;;;;;;;0.22;0.20;;;11.00;99.90;;;;;;6097554;23;20430;-77
2023/05/12 00:22:17;;;;;;;1.40;0.40;;;11.00;99.90;;;;;;6096458;23;20375;-76
2023/05/12 00:24:46;;;;;;;0.70;0.30;;;11.00;99.90;;;;;;6097216;23;20459;-75
2023/05/12 00:27:13;;;;;;;0.60;0.30;;;10.90;99.90;;;;;;6096602;23;20770;-77
2023/05/12 00:29:40;;;;;;;0.82;0.43;;;10.90;99.90;;;;;;6097586;23;20438;-77
2023/05/12 00:32:07;;;;;;;0.73;0.30;;;10.90;99.90;;;;;;6096579;23;20368;-76
2023/05/12 00:34:34;;;;;;;0.63;0.35;;;10.90;99.90;;;;;;6098877;23;20434;-77
2023/05/12 00:37:00;;;;;;;0.68;0.40;;;10.90;99.90;;;;;;6099132;23;20754;-77
2023/05/12 00:39:27;;;;;;;0.30;0.30;;;10.90;99.90;;;;;;6124622;23;20383;-77
2023/05/12 00:41:58;;;;;;;0.35;0.22;;;10.90;99.90;;;;;;6099501;23;20398;-76
2023/05/12 00:44:25;;;;;;;0.57;0.40;;;10.90;99.90;;;;;;6123794;23;20385;-77
2023/05/12 00:46:53;;;;;;;0.90;0.35;;;11.00;99.90;;;;;;6099269;23;20376;-77
2023/05/12 00:49:20;;;;;;;0.60;0.40;;;11.00;99.90;;;;;;6098278;23;20379;-76
2023/05/12 00:51:47;;;;;;;1.50;0.50;;;11.00;99.90;;;;;;6098715;23;20382;-76
2023/05/12 00:54:15;;;;;;;0.40;0.40;;;11.00;99.90;;;;;;6098525;23;20376;-76
2023/05/12 00:56:42;;;;;;;0.60;0.50;;;10.90;99.90;;;;;;6098663;23;20418;-77
2023/05/12 00:59:09;;;;;;;0.52;0.30;;;10.90;99.90;;;;;;6123648;23;20769;-76
2023/05/12 03:12:53;;;;;;;1.55;0.40;;;11.10;99.90;;;;;;6138912;23;20707;-78
2023/05/12 03:15:20;;;;;;;1.13;0.47;;;11.00;99.90;;;;;;6127457;23;20907;-77
2023/05/12 03:17:46;;;;;;;0.73;0.60;;;11.10;99.90;;;;;;6126250;23;20413;-77
2023/05/12 03:20:13;;;;;;;1.40;0.57;;;11.00;99.90;;;;;;6126927;23;20375;-78
2023/05/12 03:22:40;;;;;;;0.60;0.50;;;10.90;99.90;;;;;;6125917;23;20404;-77
2023/05/12 03:25:09;;;;;;;0.63;0.40;;;11.00;99.90;;;;;;6126871;23;20386;-79
2023/05/12 03:27:36;;;;;;;1.00;0.38;;;11.00;99.90;;;;;;6102200;23;20405;-78
2023/05/12 03:30:06;;;;;;;1.10;0.57;;;11.00;99.90;;;;;;6126986;23;20371;-78
2023/05/12 03:32:33;;;;;;;0.70;0.47;;;11.00;99.90;;;;;;6127503;23;20374;-78
2023/05/12 03:35:00;;;;;;;0.90;0.50;;;11.00;99.90;;;;;;6125610;23;20370;-78
2023/05/12 03:37:27;;;;;;;1.87;0.50;;;11.00;99.90;;;;;;6127586;23;20704;-77
2023/05/12 03:39:55;;;;;;;1.30;0.60;;;11.00;99.90;;;;;;6126240;23;20382;-78
2023/05/12 03:42:24;;;;;;;0.50;0.50;;;11.10;99.90;;;;;;6127155;23;20370;-78
2023/05/12 03:44:51;;;;;;;0.70;0.40;;;11.00;99.90;;;;;;6125956;23;20453;-79
2023/05/12 03:47:18;;;;;;;0.45;0.30;;;11.10;99.90;;;;;;6152608;23;20389;-79
2023/05/12 03:49:45;;;;;;;0.88;0.47;;;11.10;99.90;;;;;;6126669;23;20370;-78
2023/05/12 03:52:12;;;;;;;0.55;0.40;;;11.10;99.90;;;;;;6126633;23;20453;-78
2023/05/12 03:54:39;;;;;;;4.10;2.83;;;11.10;99.90;;;;;;6125902;23;20378;-78
2023/05/12 03:57:07;;;;;;;13.18;8.75;;;11.10;99.90;;;;;;6127560;23;20453;-78
2023/05/12 03:59:34;;;;;;;10.65;7.18;;;11.10;99.90;;;;;;6126209;23;20431;-78
2023/05/12 04:02:00;;;;;;;7.90;5.55;;;11.20;99.90;;;;;;6151875;23;20358;-78
2023/05/12 04:04:27;;;;;;;7.70;5.93;;;11.20;99.90;;;;;;6126416;23;20369;-77
2023/05/12 04:06:55;;;;;;;3.63;2.92;;;11.10;99.90;;;;;;6125929;23;20712;-78
2023/05/12 04:09:22;;;;;;;3.20;2.13;;;11.10;99.90;;;;;;6153991;23;20401;-78
2023/05/12 04:11:49;;;;;;;3.20;1.70;;;11.10;99.90;;;;;;6129241;23;20386;-78
2023/05/12 04:14:15;;;;;;;1.27;1.00;;;11.10;99.90;;;;;;6129744;23;20437;-78
2023/05/12 04:16:42;;;;;;;0.90;0.60;;;11.10;99.90;;;;;;6129378;23;20433;-78
2023/05/12 04:19:09;;;;;;;1.10;0.80;;;11.20;99.90;;;;;;6129747;23;20382;-77
2023/05/12 04:21:36;;;;;;;0.70;0.55;;;11.10;99.90;;;;;;6130513;23;20374;-78
2023/05/12 04:24:04;;;;;;;0.75;0.50;;;11.10;99.90;;;;;;6129236;23;20380;-78
2023/05/12 04:26:30;;;;;;;0.70;0.60;;;11.20;99.90;;;;;;6130448;23;20402;-77
2023/05/12 04:28:57;;;;;;;0.70;0.60;;;11.20;99.90;;;;;;6129345;23;20744;-78
2023/05/12 04:31:24;;;;;;;0.82;0.60;;;11.20;99.90;;;;;;6130799;23;20381;-78
2023/05/12 04:33:51;;;;;;;1.50;0.60;;;11.20;99.90;;;;;;6154442;23;20377;-78
2023/05/12 04:36:18;;;;;;;0.75;0.40;;;11.20;99.90;;;;;;6130525;23;20432;-78
2023/05/12 04:38:45;;;;;;;1.23;0.50;;;11.20;99.90;;;;;;6155107;23;20365;-78
2023/05/12 04:41:12;;;;;;;1.08;0.40;;;11.30;99.90;;;;;;6130054;23;20373;-78
2023/05/12 04:43:39;;;;;;;0.90;0.67;;;11.30;99.90;;;;;;6155689;23;20429;-77
2023/05/12 04:46:08;;;;;;;0.60;0.50;;;11.40;99.90;;;;;;6129657;23;20449;-78
2023/05/12 04:48:40;;;;;;;0.90;0.60;;;11.40;99.90;;;;;;6130212;23;20743;-78
2023/05/12 04:51:07;;;;;;;1.87;0.60;;;11.40;99.90;;;;;;6128948;23;20457;-78
2023/05/12 04:53:35;;;;;;;0.60;0.50;;;11.40;99.90;;;;;;6129685;23;20905;-78
2023/05/12 04:56:02;;;;;;;1.30;0.60;;;11.40;99.90;;;;;;6128719;23;20519;-78
2023/05/12 04:58:29;;;;;;;0.95;0.70;;;11.50;99.90;;;;;;6155349;23;20763;-78
2023/05/12 05:00:56;;;;;;;1.15;0.50;;;11.50;99.90;;;;;;6129167;23;20374;-77
2023/05/12 05:03:23;;;;;;;0.60;0.55;;;11.50;99.90;;;;;;6129940;23;20374;-78
2023/05/12 05:05:50;;;;;;;1.10;0.80;;;11.50;99.90;;;;;;6129014;23;20386;-77
2023/05/12 05:08:17;;;;;;;1.50;1.00;;;11.60;99.90;;;;;;6129568;23;20366;-77
2023/05/12 05:10:44;;;;;;;1.42;0.68;;;11.60;99.90;;;;;;6129795;23;20370;-77
2023/05/12 05:13:11;;;;;;;1.40;0.75;;;11.60;99.90;;;;;;6128754;23;20398;-78
2023/05/12 05:15:38;;;;;;;0.65;0.63;;;11.60;99.90;;;;;;6129521;23;20456;-78
2023/05/12 05:18:05;;;;;;;0.85;0.50;;;11.60;99.90;;;;;;6128981;23;20384;-78
2023/05/12 05:20:33;;;;;;;1.10;0.70;;;11.60;99.90;;;;;;6128773;23;20681;-79
2023/05/12 05:23:00;;;;;;;0.65;0.50;;;11.70;99.90;;;;;;6127350;23;20927;-78
2023/05/12 05:25:27;;;;;;;0.80;0.60;;;11.70;99.90;;;;;;6153987;23;20370;-78
2023/05/12 05:27:54;;;;;;;0.90;0.70;;;11.70;99.90;;;;;;6127183;23;20377;-77
2023/05/12 05:30:21;;;;;;;1.00;0.70;;;11.80;99.90;;;;;;6128395;23;20748;-77
2023/05/12 05:32:48;;;;;;;1.75;0.65;;;11.80;99.90;;;;;;6127199;23;20752;-79
2023/05/12 05:35:15;;;;;;;1.23;0.60;;;11.80;99.90;;;;;;6153348;23;20818;-78
2023/05/12 05:37:42;;;;;;;0.98;0.50;;;11.90;99.90;;;;;;6128628;23;20449;-78
2023/05/12 05:40:09;;;;;;;0.82;0.50;;;11.90;99.90;;;;;;6126662;23;20398;-78
2023/05/12 05:42:36;;;;;;;0.50;0.40;;;12.00;99.90;;;;;;6127986;23;20708;-78
2023/05/12 05:45:04;;;;;;;0.80;0.50;;;12.00;99.90;;;;;;6127072;23;20381;-80
2023/05/12 05:47:31;;;;;;;0.75;0.43;;;12.00;99.90;;;;;;6127889;23;20393;-78
2023/05/12 05:49:58;;;;;;;0.98;0.40;;;12.10;99.90;;;;;;6127126;23;20429;-78
2023/05/12 05:52:25;;;;;;;1.27;0.57;;;12.10;99.90;;;;;;6128080;23;20469;-78
2023/05/12 05:54:51;;;;;;;0.52;0.30;;;12.10;99.90;;;;;;6127138;23;20381;-79
2023/05/12 05:57:18;;;;;;;0.80;0.50;;;12.10;99.90;;;;;;6127636;23;20377;-78
2023/05/12 05:59:45;;;;;;;1.05;0.50;;;12.20;99.90;;;;;;6153571;23;20374;-78
2023/05/12 06:02:12;;;;;;;2.90;0.50;;;12.20;99.90;;;;;;6126384;23;20393;-78
2023/05/12 06:04:39;;;;;;;0.63;0.50;;;12.20;99.90;;;;;;6127821;23;20769;-78
2023/05/12 06:07:06;;;;;;;0.95;0.50;;;12.20;99.90;;;;;;6126579;23;20441;-78
2023/05/12 06:09:33;;;;;;;1.52;0.52;;;12.20;99.90;;;;;;6127733;23;20378;-80
2023/05/12 06:11:59;;;;;;;1.42;0.65;;;12.20;99.90;;;;;;6127130;23;20402;-78
2023/05/12 06:14:26;;;;;;;1.20;0.60;;;12.20;99.90;;;;;;6127404;23;20390;-77
2023/05/12 06:16:53;;;;;;;0.80;0.50;;;12.30;99.90;;;;;;6126595;23;20468;-78
2023/05/12 06:19:20;;;;;;;0.95;0.50;;;12.30;99.90;;;;;;6127198;23;20381;-78
2023/05/12 06:21:47;;;;;;;2.58;0.80;;;12.40;99.90;;;;;;6127523;23;20402;-78
2023/05/12 06:24:14;;;;;;;0.70;0.40;;;12.40;99.90;;;;;;6126769;23;20390;-78
2023/05/12 06:26:41;;;;;;;0.77;0.40;;;12.40;99.90;;;;;;6127042;23;20473;-79
2023/05/12 06:29:07;;;;;;;0.90;0.40;;;12.50;99.90;;;;;;6126704;23;20408;-80
2023/05/12 06:31:34;;;;;;;0.52;0.40;;;12.50;99.90;;;;;;6126646;23;20382;-78
2023/05/12 06:34:02;;;;;;;0.68;0.43;;;12.60;99.90;;;;;;6126256;23;20406;-78
2023/05/12 06:36:29;;;;;;;1.50;0.30;;;12.60;99.90;;;;;;6127021;23;20508;-78
2023/05/12 06:38:56;;;;;;;1.60;0.43;;;12.60;99.90;;;;;;6126202;23;20386;-78
2023/05/12 06:41:23;;;;;;;1.17;0.50;;;12.70;99.90;;;;;;6127235;23;20370;-78
2023/05/12 06:43:51;;;;;;;1.40;0.65;;;12.70;99.90;;;;;;6127474;23;20374;-78
2023/05/12 06:46:18;;;;;;;0.93;0.40;;;12.80;99.90;;;;;;6126010;23;20454;-78
2023/05/12 06:48:45;;;;;;;0.85;0.57;;;12.80;99.90;;;;;;6122426;23;20381;-78
2023/05/12 06:51:12;;;;;;;0.70;0.60;;;12.90;99.90;;;;;;6117749;23;20394;-78
2023/05/12 06:53:44;;;;;;;1.08;0.60;;;13.00;99.90;;;;;;6127221;23;20441;-78
2023/05/12 06:56:15;;;;;;;0.88;0.57;;;13.00;99.90;;;;;;6125076;23;20394;-77
2023/05/12 06:58:42;;;;;;;0.68;0.55;;;13.10;99.90;;;;;;6126963;23;20406;-77
2023/05/12 07:01:09;;;;;;;1.40;0.60;;;13.20;99.90;;;;;;6126505;23;20424;-78
2023/05/12 07:03:36;;;;;;;0.80;0.50;;;13.20;99.90;;;;;;6125441;23;20374;-78
2023/05/12 07:06:03;;;;;;;0.95;0.70;;;13.40;99.90;;;;;;6124936;23;20378;-78
2023/05/12 07:08:30;;;;;;;1.90;0.65;;;13.50;99.90;;;;;;6127072;23;20378;-78
2023/05/12 07:10:59;;;;;;;1.20;0.68;;;13.60;99.90;;;;;;6126342;23;20432;-78
2023/05/12 07:13:27;;;;;;;0.88;0.68;;;13.60;99.90;;;;;;6152469;23;20370;-77
2023/05/12 07:15:57;;;;;;;1.08;0.70;;;13.70;99.90;;;;;;6127013;23;20432;-78
2023/05/12 07:18:23;;;;;;;0.70;0.60;;;13.80;99.90;;;;;;6125330;23;20688;-78
2023/05/12 07:20:51;;;;;;;0.68;0.47;;;13.90;99.90;;;;;;6152291;23;20382;-78
2023/05/12 07:23:17;;;;;;;1.13;0.50;;;14.00;99.90;;;;;;6126302;23;20373;-77
2023/05/12 07:25:44;;;;;;;1.10;0.90;;;14.10;99.90;;;;;;6126949;23;20449;-78
2023/05/12 07:28:12;;;;;;;0.98;0.70;;;14.30;99.90;;;;;;6125993;23;20461;-78
2023/05/12 07:30:38;;;;;;;0.80;0.70;;;14.40;99.90;;;;;;6125924;23;20378;-78
2023/05/12 07:33:05;;;;;;;1.00;0.73;;;14.50;99.90;;;;;;6125367;23;20457;-79
2023/05/12 07:35:32;;;;;;;1.52;1.13;;;14.60;99.90;;;;;;6126433;23;20377;-78
2023/05/12 07:37:59;;;;;;;0.90;0.70;;;14.60;99.90;;;;;;6126453;23;20374;-78
2023/05/12 07:40:26;;;;;;;2.00;1.02;;;14.70;99.90;;;;;;6126319;23;20451;-78
2023/05/12 07:42:53;;;;;;;0.95;0.82;;;14.80;99.90;;;;;;6126751;23;20393;-78
2023/05/12 07:45:23;;;;;;;2.08;1.35;;;14.80;99.90;;;;;;6122149;23;20800;-77
2023/05/12 07:47:50;;;;;;;0.70;0.70;;;14.80;99.90;;;;;;6126176;23;20412;-78
2023/05/12 07:50:18;;;;;;;1.83;1.20;;;14.80;99.90;;;;;;6149429;23;20374;-77
2023/05/12 07:52:46;;;;;;;1.33;0.80;;;14.90;99.90;;;;;;6152046;23;20450;-78
2023/05/12 07:55:14;;;;;;;0.70;0.68;;;14.90;99.90;;;;;;6148593;23;20744;-78
2023/05/12 07:57:41;;;;;;;0.55;0.50;;;14.90;99.90;;;;;;6126469;23;20382;-78
2023/05/12 08:00:10;;;;;;;1.10;1.00;;;14.90;99.90;;;;;;6126068;23;20469;-78
2023/05/12 08:02:37;;;;;;;2.17;2.03;;;14.90;99.90;;;;;;6126122;23;20397;-78
2023/05/12 08:05:05;;;;;;;2.72;2.53;;;14.90;99.90;;;;;;6125864;23;20370;-79
2023/05/12 08:07:31;;;;;;;2.60;2.40;;;14.80;99.90;;;;;;6126168;23;20402;-77
2023/05/12 08:09:58;;;;;;;4.80;3.13;;;14.80;99.90;;;;;;6149486;23;20416;-78
2023/05/12 08:12:25;;;;;;;3.63;3.33;;;14.80;99.90;;;;;;6125217;23;20385;-78
2023/05/12 08:14:52;;;;;;;4.30;3.90;;;14.80;99.90;;;;;;6127221;23;20764;-78
2023/05/12 08:17:19;;;;;;;3.50;3.20;;;14.70;99.90;;;;;;6125743;23;20394;-78
2023/05/12 08:19:46;;;;;;;2.45;2.25;;;14.60;99.90;;;;;;6152526;23;20760;-78
2023/05/12 08:22:13;;;;;;;2.40;2.20;;;14.40;99.90;;;;;;6125621;23;20401;-78
2023/05/12 08:24:40;;;;;;;2.47;2.25;;;14.30;99.90;;;;;;6127085;23;20748;-78
2023/05/12 08:27:06;;;;;;;2.38;2.17;;;14.20;99.90;;;;;;6125559;23;20844;-78
2023/05/12 08:29:33;;;;;;;2.40;2.20;;;14.00;99.90;;;;;;6126821;23;20373;-77
2023/05/12 08:32:01;;;;;;;2.55;2.35;;;13.90;99.90;;;;;;6151681;23;20370;-78
2023/05/12 08:34:28;;;;;;;1.52;1.40;;;13.90;99.90;;;;;;6125829;23;20372;-78
2023/05/12 08:36:55;;;;;;;2.30;2.05;;;13.80;99.90;;;;;;6126661;23;20374;-77
2023/05/12 08:39:22;;;;;;;2.20;1.80;;;13.80;99.90;;;;;;6125782;23;20764;-78
2023/05/12 08:42:02;;;;;;;1.45;1.33;;;13.80;99.90;;;;;;6126779;23;20378;-77
2023/05/12 08:44:30;;;;;;;2.80;1.60;;;13.80;99.90;;;;;;6125312;23;20378;-77
2023/05/12 08:46:58;;;;;;;1.75;1.55;;;13.80;99.90;;;;;;6125822;23;20416;-78
2023/05/12 08:49:30;;;;;;;1.27;1.17;;;13.80;99.90;;;;;;6126783;23;20366;-77
2023/05/12 08:52:00;;;;;;;1.20;1.10;;;13.70;99.90;;;;;;6126787;23;20464;-78
2023/05/12 08:54:28;;;;;;;1.20;0.90;;;13.70;99.90;;;;;;6125415;23;20422;-78
2023/05/12 08:56:56;;;;;;;0.90;0.80;;;13.70;99.90;;;;;;6127694;23;20409;-78
2023/05/12 08:59:26;;;;;;;1.33;1.05;;;13.70;99.90;;;;;;6127599;23;20468;-78
2023/05/12 09:01:53;;;;;;;0.85;0.70;;;13.70;99.90;;;;;;6128356;23;20449;-78
2023/05/12 09:04:20;;;;;;;0.80;0.50;;;13.60;99.90;;;;;;6127153;23;20383;-78
2023/05/12 09:06:48;;;;;;;1.90;0.50;;;13.60;99.90;;;;;;6128957;23;20764;-78
2023/05/12 09:09:16;;;;;;;0.60;0.50;;;13.60;99.90;;;;;;6126970;23;20409;-78
2023/05/12 09:11:43;;;;;;;0.60;0.60;;;13.50;99.90;;;;;;6128211;23;20366;-78
2023/05/12 09:14:22;;;;;;;0.40;0.40;;;13.60;99.90;;;;;;6127444;23;20374;-78
2023/05/12 09:16:54;;;;;;;0.50;0.30;;;13.50;99.90;;;;;;6128419;23;20449;-78
2023/05/12 09:19:21;;;;;;;0.30;0.30;;;13.50;99.90;;;;;;6127500;23;20405;-78
2023/05/12 09:21:48;;;;;;;0.80;0.30;;;13.60;99.90;;;;;;6128491;23;20378;-78
2023/05/12 09:24:15;;;;;;;0.73;0.50;;;13.60;99.90;;;;;;6127041;23;20433;-77
2023/05/12 09:26:48;;;;;;;1.00;0.30;;;13.60;99.90;;;;;;6127961;23;20378;-77
2023/05/12 09:29:15;;;;;;;0.88;0.45;;;13.70;99.90;;;;;;6127130;23;20374;-78
2023/05/12 09:31:57;;;;;;;0.20;0.20;;;13.60;99.90;;;;;;6130815;23;20413;-77
2023/05/12 09:34:29;;;;;;;1.30;0.50;;;13.70;99.90;;;;;;6127339;23;20374;-77
2023/05/12 09:37:02;;;;;;;0.80;0.60;;;13.70;99.90;;;;;;6128089;23;20740;-78
2023/05/12 09:39:29;;;;;;;0.70;0.60;;;13.70;99.90;;;;;;6126770;23;20413;-78
2023/05/12 09:41:56;;;;;;;1.40;0.50;;;13.80;99.90;;;;;;6128395;23;20375;-78
2023/05/12 09:44:24;;;;;;;1.30;0.50;;;13.80;99.90;;;;;;6126278;23;20789;-78
2023/05/12 09:46:51;;;;;;;0.30;0.28;;;13.80;99.90;;;;;;6127603;23;20784;-77
2023/05/12 09:49:25;;;;;;;0.63;0.40;;;13.90;99.90;;;;;;6126940;23;20381;-78
2023/05/12 09:51:54;;;;;;;0.30;0.30;;;13.90;99.90;;;;;;6128242;23;20371;-78
2023/05/12 09:54:29;;;;;;;0.20;0.20;;;13.90;99.90;;;;;;6127022;23;20398;-77
2023/05/12 09:57:01;;;;;;;0.60;0.33;;;14.00;99.90;;;;;;6128021;23;20450;-78
2023/05/12 09:59:33;;;;;;;0.40;0.30;;;14.00;99.90;;;;;;6126825;23;20374;-77
2023/05/12 10:02:04;;;;;;;0.67;0.30;;;14.10;99.90;;;;;;6127994;23;20386;-77
2023/05/12 10:04:44;;;;;;;0.90;0.30;;;14.20;99.90;;;;;;6126770;23;20385;-78
2023/05/12 10:07:13;;;;;;;0.80;0.30;;;14.20;99.90;;;;;;6127615;23;20392;-80
2023/05/12 10:09:42;;;;;;;0.40;0.30;;;14.20;99.90;;;;;;6127139;23;20367;-77
2023/05/12 10:12:09;;;;;;;1.65;0.47;;;14.20;99.90;;;;;;6127490;23;20374;-78
2023/05/12 10:14:37;;;;;;;2.42;0.60;;;14.20;99.90;;;;;;6126597;23;20382;-78
2023/05/12 10:17:05;;;;;;;0.40;0.30;;;14.20;99.90;;;;;;6127658;23;20374;-78
2023/05/12 10:19:34;;;;;;;0.38;0.25;;;14.20;99.90;;;;;;6127033;23;20385;-79
2023/05/12 10:22:02;;;;;;;0.20;0.20;;;14.30;99.90;;;;;;6127583;23;20382;-78
2023/05/12 10:24:29;;;;;;;0.70;0.13;;;14.30;99.90;;;;;;6152590;23;20402;-79
2023/05/12 10:26:58;;;;;;;0.60;0.10;;;14.40;99.90;;;;;;6153198;23;20386;-78
2023/05/12 10:29:28;;;;;;;0.17;0.10;;;14.40;99.90;;;;;;6126722;23;20381;-78
2023/05/12 10:31:58;;;;;;;0.10;0.10;;;14.40;99.90;;;;;;6127477;23;20374;-78
2023/05/12 10:34:36;;;;;;;0.20;0.10;;;14.40;99.90;;;;;;6152423;23;20366;-78
2023/05/12 10:37:07;;;;;;;0.30;0.10;;;14.40;99.90;;;;;;6127576;23;20374;-78
2023/05/12 10:39:34;;;;;;;0.17;0.10;;;14.50;99.90;;;;;;6126340;23;20757;-77
2023/05/12 10:42:07;;;;;;;0.13;0.10;;;14.50;99.90;;;;;;6128160;23;20374;-77
2023/05/12 10:44:35;;;;;;;0.15;0.10;;;14.50;99.90;;;;;;6126610;23;20378;-77
2023/05/12 10:47:15;;;;;;;0.00;0.00;;;14.60;99.90;;;;;;6127255;23;20378;-77
2023/05/12 10:49:42;;;;;;;0.20;0.10;;;14.60;99.90;;;;;;6126502;23;20381;-77
2023/05/12 10:52:18;;;;;;;0.20;0.10;;;14.60;99.90;;;;;;6127090;23;20366;-78
2023/05/12 10:54:46;;;;;;;0.05;0.00;;;14.60;99.90;;;;;;6151958;23;20354;-78
2023/05/12 10:57:19;;;;;;;0.10;0.10;;;14.60;99.90;;;;;;6127074;23;20374;-77
2023/05/12 10:59:51;;;;;;;0.30;0.10;;;14.70;99.90;;;;;;6126252;23;20461;-78
2023/05/12 11:02:24;;;;;;;0.40;0.10;;;14.80;99.90;;;;;;6127219;23;20855;-78
2023/05/12 11:05:02;;;;;;;0.60;0.20;;;14.80;99.90;;;;;;6126559;23;20366;-78
2023/05/12 11:07:31;;;;;;;0.50;0.10;;;14.80;99.90;;;;;;6151727;23;20872;-78
2023/05/12 11:10:03;;;;;;;0.10;0.00;;;14.70;99.90;;;;;;6127343;23;20366;-78
2023/05/12 11:12:36;;;;;;;0.20;0.10;;;14.70;99.90;;;;;;6126705;23;20878;-78
2023/05/12 11:15:05;;;;;;;0.10;0.10;;;14.70;99.90;;;;;;6127032;23;20460;-78
2023/05/12 11:17:32;;;;;;;0.10;0.10;;;14.80;99.90;;;;;;6151906;23;20851;-79
2023/05/12 11:20:00;;;;;;;0.10;0.10;;;14.90;99.90;;;;;;6126620;23;20378;-78
2023/05/12 11:22:27;;;;;;;0.10;0.10;;;14.90;99.90;;;;;;6127009;23;20378;-78
2023/05/12 11:24:54;;;;;;;0.10;0.10;;;14.90;99.90;;;;;;6125920;23;20378;-77
2023/05/12 11:27:21;;;;;;;0.20;0.10;;;15.00;99.90;;;;;;6126920;23;20413;-78
2023/05/12 11:29:58;;;;;;;0.77;0.10;;;15.10;99.90;;;;;;6126165;23;20379;-78
2023/05/12 11:32:25;;;;;;;0.10;0.10;;;15.10;99.90;;;;;;6127092;23;20366;-78
2023/05/12 11:34:52;;;;;;;0.30;0.10;;;15.20;99.90;;;;;;6126345;23;20698;-78
2023/05/12 11:37:19;;;;;;;0.30;0.10;;;15.20;99.90;;;;;;6126564;23;20911;-78
2023/05/12 11:39:47;;;;;;;0.15;0.10;;;15.30;99.90;;;;;;6126110;23;20433;-77
2023/05/12 11:42:14;;;;;;;0.08;0.08;;;15.30;99.90;;;;;;6152171;23;20377;-77
2023/05/12 11:44:47;;;;;;;0.35;0.10;;;15.40;99.90;;;;;;6126425;23;20374;-78
2023/05/12 11:47:15;;;;;;;0.10;0.10;;;15.50;99.90;;;;;;6152287;23;20757;-78
2023/05/12 11:49:49;;;;;;;0.30;0.20;;;15.50;99.90;;;;;;6125868;23;20678;-78
2023/05/12 11:52:18;;;;;;;0.10;0.10;;;15.60;99.90;;;;;;6124490;23;20390;-77
2023/05/12 11:55:04;;;;;;;0.10;0.10;;;15.60;99.90;;;;;;6125522;23;20447;-78
2023/05/12 11:57:35;;;;;;;0.30;0.10;;;15.60;99.90;;;;;;6126821;23;20376;-78
2023/05/12 12:00:06;;;;;;;0.10;0.10;;;15.70;99.90;;;;;;6126495;23;20371;-78
2023/05/12 12:02:42;;;;;;;0.88;0.10;;;15.80;99.90;;;;;;6126463;23;20378;-78
2023/05/12 12:05:20;;;;;;;0.08;0.00;;;15.90;99.90;;;;;;6126189;23;20734;-78
2023/05/12 12:07:47;;;;;;;0.20;0.00;;;16.10;99.90;;;;;;6125841;23;20717;-77
2023/05/12 12:10:16;;;;;;;0.10;0.00;;;16.30;99.90;;;;;;6126618;23;20429;-78
2023/05/12 12:12:44;;;;;;;0.10;0.08;;;16.50;99.90;;;;;;6126035;23;20751;-78
2023/05/12 12:15:11;;;;;;;0.10;0.10;;;16.60;99.90;;;;;;6126015;23;20362;-78
2023/05/12 12:17:39;;;;;;;0.10;0.10;;;16.80;97.60;;;;;;6126452;23;20408;-77
2023/05/12 12:20:07;;;;;;;0.10;0.00;;;16.70;96.80;;;;;;6125652;23;20374;-77
2023/05/12 12:22:35;;;;;;;0.00;0.00;;;16.80;96.40;;;;;;6125717;23;20382;-78
2023/05/12 12:25:02;;;;;;;0.10;0.10;;;16.90;96.00;;;;;;6125535;23;20374;-78
2023/05/12 12:27:29;;;;;;;0.10;0.10;;;17.00;96.50;;;;;;6126633;23;20374;-78
2023/05/12 12:29:56;;;;;;;0.10;0.10;;;17.10;95.70;;;;;;6125943;23;20372;-78
2023/05/12 12:32:23;;;;;;;0.17;0.10;;;17.20;93.60;;;;;;6128386;23;20433;-78
2023/05/12 12:34:52;;;;;;;1.00;0.10;;;17.60;94.80;;;;;;6127563;23;20383;-78
2023/05/12 12:37:19;;;;;;;0.25;0.10;;;17.90;94.10;;;;;;6128596;23;20374;-78
2023/05/12 12:39:46;;;;;;;0.10;0.10;;;18.30;93.00;;;;;;6154079;23;20700;-78
2023/05/12 12:42:14;;;;;;;0.10;0.10;;;18.60;90.10;;;;;;6127619;23;20421;-78
2023/05/12 12:44:41;;;;;;;0.10;0.10;;;18.70;85.60;;;;;;6154079;23;20373;-77
2023/05/12 12:47:08;;;;;;;0.40;0.10;;;18.60;80.70;;;;;;6127356;23;20432;-78
2023/05/12 12:49:35;;;;;;;0.20;0.10;;;18.60;84.80;;;;;;6128051;23;20708;-78
2023/05/12 12:52:02;;;;;;;0.10;0.10;;;18.70;83.90;;;;;;6127639;23;20390;-78
2023/05/12 12:54:29;;;;;;;0.22;0.10;;;18.80;83.80;;;;;;6127957;23;20378;-78
2023/05/12 12:56:56;;;;;;;0.45;0.10;;;18.90;84.30;;;;;;6127692;23;20397;-77
2023/05/12 12:59:23;;;;;;;0.10;0.10;;;18.90;81.00;;;;;;6127830;23;20378;-78
2023/05/12 13:01:49;;;;;;;0.20;0.10;;;18.70;71.90;;;;;;6128423;23;20389;-78
2023/05/12 13:04:21;;;;;;;0.28;0.17;;;18.50;77.10;;;;;;6127255;23;20465;-78
2023/05/12 13:06:48;;;;;;;0.15;0.10;;;18.40;80.40;;;;;;6128246;23;20409;-78
2023/05/12 13:09:15;;;;;;;0.10;0.10;;;18.30;82.20;;;;;;6151849;23;20848;-78
2023/05/12 13:11:46;;;;;;;0.67;0.10;;;18.20;83.70;;;;;;6128934;23;20374;-77
2023/05/12 13:14:14;;;;;;;0.10;0.10;;;18.00;85.60;;;;;;6126683;23;20377;-77
2023/05/12 13:16:42;;;;;;;0.20;0.10;;;17.80;87.20;;;;;;6128299;23;20773;-77
2023/05/12 13:19:09;;;;;;;0.13;0.10;;;17.70;90.90;;;;;;6152135;23;20449;-77
2023/05/12 13:21:38;;;;;;;0.30;0.13;;;17.70;91.70;;;;;;6128738;23;20460;-78
2023/05/12 13:24:05;;;;;;;0.10;0.10;;;17.50;91.70;;;;;;6126888;23;20386;-78
2023/05/12 13:26:32;;;;;;;0.30;0.10;;;17.50;91.50;;;;;;6128315;23;20384;-78
2023/05/12 13:28:59;;;;;;;0.17;0.10;;;17.40;92.60;;;;;;6152264;23;20750;-78
2023/05/12 13:31:26;;;;;;;0.10;0.10;;;17.50;94.10;;;;;;6128054;23;20420;-78
2023/05/12 13:33:53;;;;;;;0.10;0.10;;;17.60;94.40;;;;;;6127608;23;20378;-78
2023/05/12 13:36:20;;;;;;;0.10;0.10;;;17.90;94.80;;;;;;6152954;23;20658;-78
2023/05/12 13:38:47;;;;;;;0.20;0.10;;;18.10;91.20;;;;;;6127771;23;20719;-78
2023/05/12 13:41:14;;;;;;;0.10;0.10;;;18.20;90.10;;;;;;6126446;23;20377;-79
2023/05/12 13:43:42;;;;;;;5.20;0.20;;;18.30;86.90;;;;;;6127789;23;20745;-78
2023/05/12 13:46:09;;;;;;;0.50;0.10;;;18.30;85.30;;;;;;6126442;23;20461;-78
2023/05/12 13:48:38;;;;;;;0.60;0.10;;;18.20;85.70;;;;;;6127371;23;20689;-78
2023/05/12 13:51:05;;;;;;;0.50;0.15;;;18.20;83.30;;;;;;6126911;23;20402;-80
2023/05/12 13:53:32;;;;;;;0.20;0.10;;;18.20;84.20;;;;;;6128320;23;20673;-78
2023/05/12 13:55:59;;;;;;;0.20;0.20;;;18.30;87.80;;;;;;6126604;23;20496;-78
2023/05/12 13:58:25;;;;;;;0.20;0.15;;;18.50;84.10;;;;;;6127731;23;20397;-78
2023/05/12 14:00:52;;;;;;;0.13;0.05;;;18.70;85.00;;;;;;6126228;23;20389;-78
2023/05/12 14:03:19;;;;;;;0.15;0.00;;;19.00;84.00;;;;;;6126655;23;20689;-78
2023/05/12 14:05:46;;;;;;;0.25;0.10;;;19.20;78.40;;;;;;6153335;23;20382;-78
2023/05/12 14:08:13;;;;;;;0.30;0.10;;;19.30;75.20;;;;;;6126983;23;20466;-78
2023/05/12 14:10:40;;;;;;;0.60;0.10;;;19.50;74.40;;;;;;6127103;23;20437;-78
2023/05/12 14:13:09;;;;;;;0.13;0.00;;;19.60;74.40;;;;;;6125361;23;20378;-78
2023/05/12 14:15:36;;;;;;;0.57;0.10;;;19.70;76.30;;;;;;6127193;23;20449;-78
2023/05/12 14:18:15;;;;;;;0.10;0.08;;;19.90;77.00;;;;;;6129082;23;20385;-78
2023/05/12 14:20:42;;;;;;;0.10;0.10;;;20.00;74.70;;;;;;6127469;23;20449;-78
2023/05/12 14:23:09;;;;;;;0.20;0.10;;;20.10;73.70;;;;;;6126349;23;20400;-78
2023/05/12 14:25:36;;;;;;;0.10;0.10;;;20.00;69.60;;;;;;6127628;23;20747;-78
2023/05/12 14:28:03;;;;;;;0.70;0.10;;;20.00;68.20;;;;;;6126587;23;20378;-78
2023/05/12 14:30:30;;;;;;;0.10;0.10;;;20.10;68.70;;;;;;6152854;23;20378;-78
2023/05/12 14:32:56;;;;;;;0.05;0.00;;;20.10;68.30;;;;;;6126906;23;20374;-78
2023/05/12 14:35:26;;;;;;;0.10;0.10;;;19.90;68.20;;;;;;6126159;23;20373;-78
2023/05/12 14:37:54;;;;;;;0.20;0.03;;;19.70;67.10;;;;;;6127371;23;20374;-79
2023/05/12 14:40:22;;;;;;;0.10;0.00;;;19.60;68.10;;;;;;6152249;23;20436;-78
2023/05/12 14:42:49;;;;;;;0.10;0.10;;;19.50;68.70;;;;;;6127116;23;20757;-78
2023/05/12 14:45:16;;;;;;;0.40;0.10;;;19.40;68.60;;;;;;6126399;23;20398;-78
2023/05/12 14:47:43;;;;;;;0.40;0.20;;;19.20;67.50;;;;;;6127343;23;20429;-78
2023/05/12 14:50:10;;;;;;;0.50;0.20;;;18.80;74.80;;;;;;6125991;23;20456;-78
2023/05/12 14:52:37;;;;;;;1.00;0.22;;;18.40;83.90;;;;;;6127430;23;20376;-78
2023/05/12 14:55:10;;;;;;;0.50;0.40;;;18.00;88.40;;;;;;6126044;23;20374;-78
2023/05/12 14:57:43;;;;;;;2.75;0.45;;;17.70;92.30;;;;;;6128285;23;20382;-78
2023/05/12 15:00:12;;;;;;;1.10;0.50;;;17.40;96.50;;;;;;6151796;23;20374;-78
2023/05/12 15:02:40;;;;;;;0.40;0.30;;;17.20;99.00;;;;;;6126792;23;20402;-78